Time;durP1;ratioP1;P1;durP2;ratioP2;P2;SDS_P1;SDS_P2;PMS_P1;PMS_P2;Temp;Humidity;BMP_temperature;BMP_pressure;BME280_temperature;BME280_humidity;BME280_pressure;Samples;Min_cycle;Max_cycle;Signal;HPM_P1;HPM_P2
2021/08/06 00:02:10;;;;;;;3.70;1.90;;;18.50;99.90;;;;;;5034323;28;20173;-77
2021/08/06 00:04:36;;;;;;;1.90;1.67;;;18.40;99.90;;;;;;5034886;28;20184;-77
2021/08/06 00:07:03;;;;;;;2.53;2.17;;;18.30;99.90;;;;;;5038604;28;20925;-77
2021/08/06 00:09:31;;;;;;;2.00;1.67;;;18.30;99.90;;;;;;5050568;28;20472;-79
2021/08/06 00:11:57;;;;;;;2.00;1.80;;;18.40;99.90;;;;;;5046344;28;20407;-77
2021/08/06 00:14:24;;;;;;;2.20;1.80;;;18.50;99.90;;;;;;5051170;28;20431;-77
2021/08/06 00:16:53;;;;;;;1.70;1.60;;;18.50;99.90;;;;;;5040945;28;20521;-77
2021/08/06 00:19:20;;;;;;;2.43;1.73;;;18.50;99.90;;;;;;5035323;28;20438;-77
2021/08/06 00:21:46;;;;;;;2.40;2.00;;;18.60;99.90;;;;;;5035480;28;20467;-78
2021/08/06 00:24:12;;;;;;;2.80;1.97;;;18.40;99.90;;;;;;5034420;28;20438;-77
2021/08/06 00:26:38;;;;;;;2.30;2.10;;;18.40;99.90;;;;;;5035628;28;20212;-78
2021/08/06 00:29:03;;;;;;;2.67;2.47;;;18.50;99.90;;;;;;5035699;28;20538;-79
2021/08/06 00:31:29;;;;;;;2.27;1.80;;;18.60;99.90;;;;;;5035504;28;20189;-77
2021/08/06 00:33:55;;;;;;;1.70;1.60;;;18.60;99.90;;;;;;5021344;28;20263;-76
2021/08/06 00:36:21;;;;;;;2.00;1.83;;;18.50;99.90;;;;;;5035271;28;20301;-76
2021/08/06 00:38:46;;;;;;;2.30;2.10;;;18.60;99.90;;;;;;5025161;28;20677;-77
2021/08/06 00:41:12;;;;;;;5.17;4.20;;;18.70;99.90;;;;;;5031893;28;20201;-77
2021/08/06 00:43:38;;;;;;;2.60;2.40;;;18.50;99.90;;;;;;4998398;28;20180;-77
2021/08/06 00:46:04;;;;;;;7.47;2.60;;;18.60;99.90;;;;;;5032404;28;20843;-77
2021/08/06 00:48:30;;;;;;;2.37;1.80;;;18.70;99.90;;;;;;5032348;28;20651;-76
2021/08/06 00:50:58;;;;;;;2.50;2.27;;;18.80;99.90;;;;;;5032219;28;20517;-78
2021/08/06 00:53:24;;;;;;;2.33;2.13;;;18.90;99.90;;;;;;5032108;28;20419;-77
2021/08/06 00:55:50;;;;;;;5.70;2.07;;;18.80;99.90;;;;;;5032333;28;20435;-76
2021/08/06 00:58:16;;;;;;;1.97;1.77;;;19.00;99.90;;;;;;5032337;28;20415;-76
2021/08/06 01:00:42;;;;;;;2.87;2.20;;;19.00;99.90;;;;;;5032147;28;20458;-77
2021/08/06 01:03:23;;;;;;;3.13;1.80;;;19.10;99.90;;;;;;5022614;28;20248;-77
2021/08/06 01:06:15;;;;;;;8.70;2.27;;;19.10;99.90;;;;;;5031825;28;20199;-77
2021/08/06 01:08:54;;;;;;;2.40;2.20;;;19.00;99.90;;;;;;5027072;28;20411;-78
2021/08/06 01:11:26;;;;;;;2.03;1.87;;;19.00;99.90;;;;;;5032200;28;20407;-77
2021/08/06 01:13:54;;;;;;;2.30;2.00;;;19.10;99.90;;;;;;5031795;28;20427;-77
2021/08/06 01:16:30;;;;;;;2.20;2.00;;;19.30;99.90;;;;;;5031687;28;20447;-77
2021/08/06 01:19:24;;;;;;;2.43;2.13;;;18.90;99.90;;;;;;5031937;28;20422;-78
2021/08/06 01:22:00;;;;;;;4.30;2.27;;;19.10;99.90;;;;;;5028314;28;20473;-78
2021/08/06 01:24:27;;;;;;;2.20;1.80;;;19.00;99.90;;;;;;5031366;28;20407;-78
2021/08/06 01:26:55;;;;;;;1.90;1.77;;;19.10;99.90;;;;;;5025311;28;20452;-79
2021/08/06 01:29:21;;;;;;;2.37;2.17;;;19.10;99.90;;;;;;5031739;28;20422;-77
2021/08/06 01:31:48;;;;;;;2.60;1.93;;;19.40;99.90;;;;;;5031372;28;20435;-78
2021/08/06 01:34:14;;;;;;;2.37;1.80;;;19.30;99.90;;;;;;5031384;28;20284;-79
2021/08/06 01:36:40;;;;;;;2.33;1.90;;;19.30;99.90;;;;;;5024126;28;20479;-78
2021/08/06 01:39:06;;;;;;;2.03;1.87;;;19.40;99.90;;;;;;5031264;28;20196;-78
2021/08/06 01:41:50;;;;;;;2.13;1.93;;;19.60;99.90;;;;;;5036812;28;20260;-77
2021/08/06 01:44:47;;;;;;;2.60;2.10;;;19.60;99.90;;;;;;5031147;28;20176;-77
2021/08/06 01:47:29;;;;;;;3.90;1.93;;;19.80;99.90;;;;;;5030789;28;20493;-77
2021/08/06 01:50:03;;;;;;;2.87;2.30;;;19.70;99.90;;;;;;5013836;28;20403;-77
2021/08/06 01:52:34;;;;;;;2.90;2.20;;;19.60;99.90;;;;;;5028939;28;20490;-78
2021/08/06 01:55:02;;;;;;;2.47;2.27;;;19.70;99.90;;;;;;5031948;28;20444;-76
2021/08/06 01:57:30;;;;;;;2.97;2.50;;;19.80;99.90;;;;;;5031022;28;20901;-79
2021/08/06 01:59:58;;;;;;;2.10;1.73;;;19.90;99.90;;;;;;5028257;28;20423;-79
2021/08/06 02:02:24;;;;;;;2.40;2.20;;;19.90;99.90;;;;;;5031124;28;20514;-78
2021/08/06 02:04:50;;;;;;;3.73;2.20;;;19.70;99.90;;;;;;5030668;28;20489;-78
2021/08/06 02:07:16;;;;;;;2.43;2.23;;;19.70;99.90;;;;;;5030952;28;20196;-77
2021/08/06 02:09:42;;;;;;;2.10;1.90;;;19.80;99.90;;;;;;5030730;28;20177;-78
2021/08/06 02:12:08;;;;;;;2.73;2.10;;;19.70;99.90;;;;;;5012969;28;21052;-77
2021/08/06 02:14:35;;;;;;;6.27;2.40;;;19.70;99.90;;;;;;5030786;28;20216;-76
2021/08/06 02:17:01;;;;;;;4.90;2.17;;;19.60;99.90;;;;;;5032043;28;20577;-77
2021/08/06 02:19:29;;;;;;;2.43;2.10;;;19.40;99.90;;;;;;5029627;28;20795;-78
2021/08/06 02:21:58;;;;;;;3.17;2.30;;;19.40;99.90;;;;;;5029576;28;20513;-78
2021/08/06 02:24:26;;;;;;;2.30;2.10;;;19.20;99.90;;;;;;5028498;28;20482;-77
2021/08/06 02:26:53;;;;;;;2.27;2.07;;;19.10;99.90;;;;;;5026365;28;20617;-78
2021/08/06 02:29:21;;;;;;;2.90;2.47;;;19.10;99.90;;;;;;5029800;28;20474;-78
2021/08/06 02:31:48;;;;;;;2.23;2.00;;;19.00;99.90;;;;;;5030485;28;20423;-78
2021/08/06 02:34:15;;;;;;;2.23;2.00;;;18.90;99.90;;;;;;5030868;28;20450;-79
2021/08/06 02:36:42;;;;;;;2.87;2.23;;;19.00;99.90;;;;;;5016208;28;20860;-78
2021/08/06 02:39:19;;;;;;;3.10;2.10;;;19.00;99.90;;;;;;5029287;28;20420;-77
2021/08/06 02:41:46;;;;;;;3.63;1.90;;;19.00;99.90;;;;;;5028809;28;20470;-77
2021/08/06 02:44:12;;;;;;;4.47;2.03;;;18.90;99.90;;;;;;5030737;28;20408;-77
2021/08/06 02:46:38;;;;;;;2.50;2.30;;;18.80;99.90;;;;;;5031174;28;20442;-78
2021/08/06 02:49:04;;;;;;;2.73;2.50;;;18.80;99.90;;;;;;5031362;28;20416;-78
2021/08/06 02:51:30;;;;;;;3.40;2.20;;;18.80;99.90;;;;;;5030373;28;20203;-77
2021/08/06 02:53:56;;;;;;;7.33;2.87;;;18.70;99.90;;;;;;5030124;28;20427;-78
2021/08/06 02:56:22;;;;;;;5.30;2.37;;;18.60;99.90;;;;;;5012060;28;20472;-76
2021/08/06 02:58:48;;;;;;;2.97;2.60;;;18.80;99.90;;;;;;5030152;28;20192;-76
2021/08/06 03:01:13;;;;;;;2.43;2.23;;;18.80;99.90;;;;;;5029648;28;20459;-77
2021/08/06 03:03:39;;;;;;;3.50;2.30;;;18.90;99.90;;;;;;5029466;28;20246;-77
2021/08/06 03:06:04;;;;;;;2.37;2.17;;;19.00;99.90;;;;;;5028707;28;20208;-77
2021/08/06 03:08:30;;;;;;;6.27;3.00;;;19.10;99.90;;;;;;5029940;28;20172;-78
2021/08/06 03:10:56;;;;;;;2.80;2.57;;;19.10;99.90;;;;;;5012092;28;20191;-76
2021/08/06 03:13:21;;;;;;;3.60;2.73;;;19.20;99.90;;;;;;5031066;28;20179;-78
2021/08/06 03:15:47;;;;;;;5.93;3.30;;;19.30;99.90;;;;;;5029840;28;20215;-79
2021/08/06 03:18:13;;;;;;;3.93;2.40;;;19.20;99.90;;;;;;5028893;28;20708;-78
2021/08/06 03:20:39;;;;;;;3.13;2.00;;;19.30;99.90;;;;;;5029991;28;20212;-77
2021/08/06 03:23:04;;;;;;;2.60;2.37;;;19.30;99.90;;;;;;5029769;28;20721;-78
2021/08/06 03:25:30;;;;;;;3.77;2.30;;;19.40;99.90;;;;;;5028544;28;20208;-78
2021/08/06 03:27:57;;;;;;;2.40;2.20;;;19.30;99.90;;;;;;5012245;28;20172;-78
2021/08/06 03:30:23;;;;;;;3.40;2.87;;;19.20;99.90;;;;;;5029088;28;20247;-78
2021/08/06 03:32:49;;;;;;;3.20;2.60;;;19.00;99.90;;;;;;5027644;28;20925;-78
2021/08/06 03:35:14;;;;;;;3.10;2.27;;;18.90;99.90;;;;;;5029120;28;20439;-78
2021/08/06 03:37:41;;;;;;;2.60;2.40;;;19.10;99.90;;;;;;5029689;28;20208;-79
2021/08/06 03:40:08;;;;;;;2.57;2.37;;;19.20;99.90;;;;;;5027429;28;20184;-78
2021/08/06 03:42:33;;;;;;;2.57;2.37;;;19.30;99.90;;;;;;5026123;28;20439;-77
2021/08/06 03:44:59;;;;;;;2.30;2.10;;;19.20;99.90;;;;;;5027426;28;20427;-77
2021/08/06 03:47:25;;;;;;;2.60;2.40;;;19.10;99.90;;;;;;5029845;28;20560;-78
2021/08/06 03:49:50;;;;;;;2.70;2.40;;;19.20;99.90;;;;;;5029459;28;20180;-79
2021/08/06 03:52:16;;;;;;;2.87;2.50;;;19.20;99.90;;;;;;5029173;28;20200;-79
2021/08/06 03:54:42;;;;;;;4.40;2.73;;;19.20;99.90;;;;;;5030442;28;20242;-79
2021/08/06 03:57:08;;;;;;;2.87;2.60;;;19.10;99.90;;;;;;5030587;28;20439;-79
2021/08/06 03:59:39;;;;;;;3.10;2.60;;;19.00;99.90;;;;;;5030827;28;20177;-78
2021/08/06 04:02:05;;;;;;;2.50;2.30;;;18.80;99.90;;;;;;5026489;28;20216;-78
2021/08/06 04:04:30;;;;;;;2.90;2.70;;;18.50;99.90;;;;;;5025543;28;20432;-79
2021/08/06 04:06:56;;;;;;;2.93;2.50;;;18.40;99.90;;;;;;5026397;28;20200;-78
2021/08/06 04:09:22;;;;;;;3.00;2.50;;;18.30;99.90;;;;;;5027164;28;20176;-78
2021/08/06 04:11:48;;;;;;;2.73;2.53;;;18.10;99.90;;;;;;5031645;28;20608;-78
2021/08/06 04:14:13;;;;;;;5.47;2.87;;;18.10;99.90;;;;;;5030692;28;20185;-76
2021/08/06 04:16:39;;;;;;;3.00;2.80;;;18.10;99.90;;;;;;5029084;28;20208;-77
2021/08/06 04:19:05;;;;;;;3.17;2.80;;;18.20;99.90;;;;;;5029807;28;20208;-77
2021/08/06 04:21:30;;;;;;;5.37;2.77;;;18.10;99.90;;;;;;5027553;28;20212;-78
2021/08/06 04:23:56;;;;;;;4.57;3.00;;;18.20;99.90;;;;;;5030480;28;20267;-78
2021/08/06 04:26:22;;;;;;;3.17;2.87;;;18.10;99.90;;;;;;5032416;28;20192;-78
2021/08/06 04:28:47;;;;;;;2.70;2.50;;;18.00;99.90;;;;;;5032382;28;20211;-78
2021/08/06 04:31:13;;;;;;;4.03;3.40;;;18.00;99.90;;;;;;5032639;28;20212;-76
2021/08/06 04:33:39;;;;;;;3.63;3.27;;;17.90;99.90;;;;;;5032012;28;20176;-77
2021/08/06 04:36:05;;;;;;;3.33;3.03;;;17.90;99.90;;;;;;5031705;28;20216;-78
2021/08/06 04:38:30;;;;;;;4.03;3.40;;;18.00;99.90;;;;;;5031698;28;20188;-78
2021/08/06 04:40:56;;;;;;;3.10;2.70;;;17.90;99.90;;;;;;5030659;28;20339;-77
2021/08/06 04:43:22;;;;;;;4.30;3.20;;;17.90;99.90;;;;;;5032165;28;20180;-78
2021/08/06 04:45:48;;;;;;;3.60;2.87;;;18.00;99.90;;;;;;5032240;28;20758;-79
2021/08/06 04:48:24;;;;;;;4.07;3.30;;;17.90;99.90;;;;;;5032248;28;20303;-78
2021/08/06 04:50:50;;;;;;;4.90;3.20;;;17.70;99.90;;;;;;5013127;28;20467;-79
2021/08/06 04:53:16;;;;;;;4.40;3.47;;;17.80;99.90;;;;;;5030169;28;20455;-80
2021/08/06 04:55:42;;;;;;;4.10;3.00;;;17.90;99.90;;;;;;5031620;28;20466;-77
2021/08/06 04:58:08;;;;;;;4.37;3.30;;;17.80;99.90;;;;;;5031610;28;20944;-78
2021/08/06 05:00:33;;;;;;;3.37;3.07;;;17.90;99.90;;;;;;5029985;28;20216;-78
2021/08/06 05:02:59;;;;;;;4.17;3.77;;;17.90;99.90;;;;;;5031645;28;20423;-77
2021/08/06 05:05:24;;;;;;;3.70;3.40;;;18.00;99.90;;;;;;5031121;28;20216;-77
2021/08/06 05:07:54;;;;;;;5.20;3.20;;;17.90;99.90;;;;;;5031157;28;20741;-77
2021/08/06 05:10:22;;;;;;;5.87;3.03;;;17.90;99.90;;;;;;5029246;28;20177;-77
2021/08/06 05:12:48;;;;;;;4.30;3.30;;;18.00;99.90;;;;;;5028706;28;21156;-77
2021/08/06 05:15:15;;;;;;;7.83;3.17;;;17.90;99.90;;;;;;5011531;28;20451;-78
2021/08/06 05:17:41;;;;;;;3.60;3.30;;;17.90;99.90;;;;;;5031195;28;20561;-77
2021/08/06 05:20:08;;;;;;;3.13;2.83;;;18.00;99.90;;;;;;5029181;28;20440;-76
2021/08/06 05:22:33;;;;;;;3.23;2.93;;;18.10;99.90;;;;;;5021369;28;20774;-77
2021/08/06 05:24:59;;;;;;;4.70;3.03;;;18.10;99.90;;;;;;5032572;28;20435;-77
2021/08/06 05:27:25;;;;;;;3.23;2.93;;;18.10;99.90;;;;;;5041617;28;20188;-78
2021/08/06 05:29:51;;;;;;;5.97;2.87;;;18.20;99.90;;;;;;5055572;28;20256;-79
2021/08/06 05:32:16;;;;;;;4.07;3.40;;;18.30;99.90;;;;;;5058624;28;20423;-80
2021/08/06 05:34:42;;;;;;;7.80;2.80;;;18.30;99.90;;;;;;5053917;28;20180;-78
2021/08/06 05:37:08;;;;;;;3.60;3.30;;;18.30;99.90;;;;;;5049185;28;20707;-76
2021/08/06 05:39:33;;;;;;;3.20;2.90;;;18.10;99.90;;;;;;5016189;28;20275;-77
2021/08/06 05:41:59;;;;;;;3.53;2.60;;;18.20;99.90;;;;;;5012933;28;20246;-78
2021/08/06 05:44:25;;;;;;;3.70;3.30;;;18.30;99.90;;;;;;5011364;28;21059;-77
2021/08/06 05:46:51;;;;;;;7.97;3.37;;;18.30;99.90;;;;;;5031744;28;20968;-78
2021/08/06 05:49:17;;;;;;;3.70;3.40;;;18.40;99.90;;;;;;5030820;28;20439;-79
2021/08/06 05:51:43;;;;;;;3.53;2.97;;;18.30;99.90;;;;;;5029651;28;20220;-74
2021/08/06 05:54:08;;;;;;;4.27;2.60;;;18.40;99.90;;;;;;5032778;28;20541;-74
2021/08/06 05:56:34;;;;;;;2.93;2.67;;;18.50;99.90;;;;;;5034732;28;20455;-73
2021/08/06 05:59:00;;;;;;;3.67;3.37;;;18.60;99.90;;;;;;5030060;28;20286;-74
2021/08/06 06:01:25;;;;;;;3.30;2.97;;;18.70;99.90;;;;;;5026927;28;20204;-74
2021/08/06 06:03:51;;;;;;;3.20;2.80;;;18.70;99.90;;;;;;5024640;28;20295;-74
2021/08/06 06:06:17;;;;;;;3.50;2.53;;;18.80;99.90;;;;;;5029044;28;20213;-74
2021/08/06 06:08:43;;;;;;;4.20;2.90;;;18.90;99.90;;;;;;5028962;28;20473;-74
2021/08/06 06:11:08;;;;;;;3.70;2.53;;;19.10;99.90;;;;;;5028141;28;20185;-74
2021/08/06 06:13:36;;;;;;;4.00;2.87;;;19.00;99.90;;;;;;5026610;28;20191;-74
2021/08/06 06:16:02;;;;;;;3.10;2.80;;;19.00;99.90;;;;;;5010837;28;20520;-74
2021/08/06 06:18:27;;;;;;;2.90;2.70;;;18.90;99.90;;;;;;5009374;28;20502;-75
2021/08/06 06:20:53;;;;;;;2.80;2.50;;;18.80;99.90;;;;;;5028947;28;20569;-75
2021/08/06 06:23:19;;;;;;;3.90;2.67;;;18.80;99.90;;;;;;5027044;28;20554;-74
2021/08/06 06:25:45;;;;;;;2.93;2.30;;;18.70;99.90;;;;;;5026727;28;20224;-74
2021/08/06 06:28:11;;;;;;;2.50;2.30;;;18.80;99.90;;;;;;5026766;28;20420;-74
2021/08/06 06:30:37;;;;;;;3.90;2.53;;;18.70;99.90;;;;;;5027624;28;20600;-74
2021/08/06 06:33:04;;;;;;;4.20;2.50;;;18.70;99.90;;;;;;5025987;28;20462;-74
2021/08/06 06:35:31;;;;;;;5.37;2.40;;;18.70;99.90;;;;;;5025472;28;20562;-75
2021/08/06 06:37:57;;;;;;;2.53;2.33;;;18.70;99.90;;;;;;5027859;28;20921;-74
2021/08/06 06:40:26;;;;;;;2.67;2.20;;;18.60;99.90;;;;;;5027489;28;20474;-75
2021/08/06 06:42:52;;;;;;;2.73;2.47;;;18.50;99.90;;;;;;5026780;28;20432;-75
2021/08/06 06:45:21;;;;;;;3.97;2.47;;;18.40;99.90;;;;;;5026602;28;20461;-76
2021/08/06 06:47:49;;;;;;;2.63;2.43;;;18.40;99.90;;;;;;5007952;28;20262;-75
2021/08/06 06:50:18;;;;;;;2.60;2.20;;;18.40;99.90;;;;;;5023531;28;20458;-75
2021/08/06 06:52:46;;;;;;;2.83;2.10;;;18.40;99.90;;;;;;5026744;28;20420;-75
2021/08/06 06:55:12;;;;;;;5.00;2.47;;;18.40;99.90;;;;;;5024307;28;20439;-75
2021/08/06 06:57:46;;;;;;;2.47;2.07;;;18.40;99.90;;;;;;5026308;28;20427;-75
2021/08/06 07:00:13;;;;;;;2.40;2.10;;;18.40;99.90;;;;;;5027263;28;20427;-75
2021/08/06 07:02:42;;;;;;;2.53;2.30;;;18.50;99.90;;;;;;5027446;28;20431;-75
2021/08/06 07:05:09;;;;;;;2.83;2.10;;;18.40;99.90;;;;;;5024991;28;20439;-75
2021/08/06 07:07:35;;;;;;;2.50;2.20;;;18.50;99.90;;;;;;5025883;28;20427;-74
2021/08/06 07:10:00;;;;;;;3.40;2.00;;;18.40;99.90;;;;;;5020203;28;20449;-75
2021/08/06 07:12:26;;;;;;;2.30;2.10;;;18.40;99.90;;;;;;5024138;28;20265;-74
2021/08/06 07:14:52;;;;;;;2.40;2.00;;;18.50;99.90;;;;;;5024219;28;20204;-74
2021/08/06 07:17:18;;;;;;;3.20;2.60;;;18.60;99.90;;;;;;5026731;28;20733;-74
2021/08/06 07:19:43;;;;;;;3.00;1.97;;;18.70;99.90;;;;;;5022657;28;20220;-75
2021/08/06 07:22:09;;;;;;;2.20;2.00;;;18.80;99.90;;;;;;5026353;28;20698;-74
2021/08/06 07:24:35;;;;;;;4.50;2.60;;;18.80;99.90;;;;;;5026488;28;20242;-74
2021/08/06 07:27:00;;;;;;;5.30;2.70;;;18.80;99.90;;;;;;5024267;28;20628;-74
2021/08/06 07:29:26;;;;;;;2.50;2.10;;;18.70;99.90;;;;;;5024654;28;20621;-74
2021/08/06 07:31:52;;;;;;;3.20;2.50;;;18.70;99.90;;;;;;5023116;28;20295;-74
2021/08/06 07:34:18;;;;;;;4.50;2.23;;;18.90;99.90;;;;;;5002679;28;20189;-74
2021/08/06 07:36:44;;;;;;;3.10;2.70;;;18.90;99.90;;;;;;5025522;28;20281;-74
2021/08/06 07:39:09;;;;;;;2.97;2.10;;;19.00;99.90;;;;;;5023748;28;20200;-74
2021/08/06 07:41:35;;;;;;;3.90;2.07;;;19.10;99.90;;;;;;5026638;28;20541;-74
2021/08/06 07:44:01;;;;;;;2.70;2.20;;;19.10;99.90;;;;;;5024326;28;20251;-74
2021/08/06 07:46:30;;;;;;;2.43;2.23;;;19.10;99.90;;;;;;5027638;28;20288;-73
2021/08/06 07:49:02;;;;;;;2.23;2.03;;;19.10;99.90;;;;;;5029414;28;21011;-74
2021/08/06 07:51:31;;;;;;;2.70;2.50;;;19.10;99.90;;;;;;5028649;28;20442;-73
2021/08/06 07:54:02;;;;;;;2.50;2.10;;;19.10;99.90;;;;;;5030206;28;20473;-73
2021/08/06 07:56:31;;;;;;;3.60;2.87;;;19.20;99.90;;;;;;5012056;28;20550;-74
2021/08/06 07:58:56;;;;;;;2.47;2.27;;;19.30;99.90;;;;;;5030818;28;20438;-74
2021/08/06 08:01:32;;;;;;;3.07;2.20;;;19.20;99.90;;;;;;5011716;28;20471;-74
2021/08/06 08:04:01;;;;;;;2.47;2.23;;;19.30;99.90;;;;;;5031226;28;20184;-74
2021/08/06 08:06:29;;;;;;;2.60;1.90;;;19.30;99.90;;;;;;5031924;28;20454;-75
2021/08/06 08:08:58;;;;;;;2.50;1.87;;;19.40;99.90;;;;;;5012305;28;20438;-75
2021/08/06 08:11:26;;;;;;;2.10;1.90;;;19.30;99.90;;;;;;5027498;28;20435;-74
2021/08/06 08:13:58;;;;;;;2.40;2.20;;;19.30;99.90;;;;;;5031404;28;20577;-75
2021/08/06 08:16:25;;;;;;;2.73;1.70;;;19.50;99.90;;;;;;5028122;28;20436;-75
2021/08/06 08:18:50;;;;;;;2.20;2.00;;;19.50;99.90;;;;;;5030666;28;20812;-75
2021/08/06 08:21:16;;;;;;;2.30;2.10;;;19.60;99.90;;;;;;5032556;28;20462;-75
2021/08/06 08:23:42;;;;;;;3.23;2.20;;;19.60;99.90;;;;;;5029940;28;20606;-74
2021/08/06 08:26:11;;;;;;;2.13;1.77;;;19.60;99.90;;;;;;5031148;28;20216;-74
2021/08/06 08:28:39;;;;;;;2.77;2.27;;;19.70;99.90;;;;;;5033694;28;20207;-74
2021/08/06 08:31:05;;;;;;;8.67;1.90;;;19.70;99.90;;;;;;5032194;28;20436;-74
2021/08/06 08:33:31;;;;;;;2.00;1.70;;;19.80;99.90;;;;;;5031010;28;20426;-74
2021/08/06 08:35:57;;;;;;;2.70;1.57;;;19.90;99.90;;;;;;5018959;28;20512;-74
2021/08/06 08:38:27;;;;;;;2.00;1.80;;;19.90;99.90;;;;;;5029664;28;20842;-73
2021/08/06 08:40:55;;;;;;;1.93;1.63;;;20.00;99.90;;;;;;5034084;28;20857;-74
2021/08/06 08:43:43;;;;;;;4.03;1.90;;;19.90;99.90;;;;;;5015455;28;20502;-74
2021/08/06 08:46:23;;;;;;;;;;;;;;;;;;;;;
2021/08/06 08:49:02;;;;;;;2.77;2.27;;;20.10;99.90;;;;;;5023973;28;20487;-73
2021/08/06 08:51:36;;;;;;;2.03;1.73;;;20.20;99.90;;;;;;5040048;28;20447;-74
2021/08/06 08:54:10;;;;;;;2.40;1.87;;;20.30;99.90;;;;;;5019950;28;20413;-74
2021/08/06 08:56:36;;;;;;;1.80;1.70;;;20.40;99.90;;;;;;5029417;28;20450;-75
2021/08/06 08:59:05;;;;;;;2.57;2.00;;;20.50;99.90;;;;;;5025659;28;20437;-75
2021/08/06 09:01:30;;;;;;;2.27;1.97;;;20.40;99.90;;;;;;5028658;28;20216;-75
2021/08/06 09:03:56;;;;;;;6.00;2.07;;;20.50;99.90;;;;;;5030136;28;20431;-74
2021/08/06 09:06:45;;;;;;;2.80;1.67;;;20.40;99.90;;;;;;5028166;28;20660;-74
2021/08/06 09:09:20;;;;;;;2.10;1.90;;;20.20;99.90;;;;;;5032072;28;20247;-75
2021/08/06 09:11:46;;;;;;;4.00;1.90;;;20.10;99.90;;;;;;5030269;28;20423;-75
2021/08/06 09:14:25;;;;;;;2.20;1.90;;;20.00;99.90;;;;;;5014963;28;20515;-74
2021/08/06 09:16:55;;;;;;;2.77;2.47;;;19.90;99.90;;;;;;5030231;28;20534;-75
2021/08/06 09:19:21;;;;;;;2.80;1.93;;;20.00;99.90;;;;;;5029445;28;20443;-73
2021/08/06 09:21:47;;;;;;;2.53;2.33;;;20.00;99.90;;;;;;5028762;28;20475;-75
2021/08/06 09:24:12;;;;;;;3.10;1.87;;;20.00;99.90;;;;;;5030539;28;20447;-73
2021/08/06 09:26:44;;;;;;;2.77;2.20;;;20.10;99.90;;;;;;5027727;28;20204;-73
2021/08/06 09:29:24;;;;;;;3.70;2.10;;;20.10;99.90;;;;;;5027381;28;20651;-73
2021/08/06 09:32:00;;;;;;;3.90;2.50;;;20.10;99.90;;;;;;5026559;28;20439;-75
2021/08/06 09:34:35;;;;;;;2.50;2.27;;;20.30;99.90;;;;;;5028257;28;20510;-74
2021/08/06 09:37:07;;;;;;;2.20;2.00;;;20.30;99.90;;;;;;5028777;28;20512;-74
2021/08/06 09:39:48;;;;;;;3.43;2.23;;;20.30;99.90;;;;;;5022907;28;20550;-74
2021/08/06 09:42:46;;;;;;;2.23;2.03;;;20.30;99.90;;;;;;5026441;28;20471;-75
2021/08/06 09:45:15;;;;;;;2.43;1.80;;;20.30;99.90;;;;;;5028682;28;20513;-74
2021/08/06 09:47:43;;;;;;;3.83;1.90;;;20.50;99.90;;;;;;5028895;28;20467;-73
2021/08/06 09:50:17;;;;;;;2.27;1.87;;;20.80;99.90;;;;;;5026821;28;20439;-74
2021/08/06 09:52:53;;;;;;;1.93;1.83;;;21.00;99.90;;;;;;5028536;28;20804;-73
2021/08/06 09:55:19;;;;;;;1.97;1.60;;;21.10;99.90;;;;;;5028186;28;20482;-73
2021/08/06 09:57:45;;;;;;;2.90;2.40;;;21.10;99.90;;;;;;5013793;28;21086;-73
2021/08/06 10:00:24;;;;;;;2.83;1.97;;;21.00;99.90;;;;;;5028155;28;20184;-73
2021/08/06 10:02:56;;;;;;;4.63;2.20;;;21.00;99.90;;;;;;5029135;28;20427;-73
2021/08/06 10:05:33;;;;;;;2.50;1.73;;;20.60;99.90;;;;;;5030002;28;20455;-73
2021/08/06 10:08:03;;;;;;;3.20;1.93;;;20.40;99.90;;;;;;5030335;28;20437;-74
2021/08/06 10:10:34;;;;;;;3.03;2.20;;;20.30;99.90;;;;;;5029784;28;20423;-74
2021/08/06 10:13:01;;;;;;;2.17;1.80;;;20.30;99.90;;;;;;5027580;28;20558;-74
2021/08/06 10:15:30;;;;;;;5.73;1.93;;;20.40;99.90;;;;;;5028872;28;20458;-75
2021/08/06 10:17:59;;;;;;;2.27;2.00;;;20.60;99.90;;;;;;5029316;28;20427;-74
2021/08/06 10:20:26;;;;;;;2.90;1.73;;;20.60;99.90;;;;;;5024443;28;20487;-72
2021/08/06 10:23:01;;;;;;;4.40;1.97;;;20.60;99.90;;;;;;5024203;28;20431;-73
2021/08/06 10:25:30;;;;;;;3.37;2.00;;;20.70;99.90;;;;;;5026727;28;20446;-74
2021/08/06 10:27:56;;;;;;;2.30;1.70;;;20.70;99.90;;;;;;5009280;28;20473;-73
2021/08/06 10:30:35;;;;;;;2.73;2.07;;;20.90;99.90;;;;;;5023720;28;20530;-73
2021/08/06 10:33:23;;;;;;;2.20;1.70;;;20.90;99.90;;;;;;5026956;28;20435;-73
2021/08/06 10:35:56;;;;;;;1.63;1.50;;;21.20;99.90;;;;;;5026414;28;20459;-73
2021/08/06 10:38:39;;;;;;;2.27;1.57;;;21.20;99.90;;;;;;5007287;28;20438;-73
2021/08/06 10:41:12;;;;;;;2.80;1.97;;;21.20;99.90;;;;;;5023594;28;20482;-73
2021/08/06 10:43:42;;;;;;;4.00;2.00;;;21.20;99.90;;;;;;5027401;28;20444;-73
2021/08/06 10:46:10;;;;;;;2.23;1.87;;;21.30;99.90;;;;;;5031012;28;20450;-72
2021/08/06 10:48:48;;;;;;;1.77;1.40;;;21.30;99.90;;;;;;5034333;28;20511;-73
2021/08/06 10:51:17;;;;;;;1.67;1.50;;;21.20;99.90;;;;;;5044738;28;20450;-73
2021/08/06 10:53:54;;;;;;;1.97;1.70;;;21.00;99.90;;;;;;5032220;28;20446;-72
2021/08/06 10:56:25;;;;;;;1.97;1.77;;;20.90;99.90;;;;;;5025402;28;20866;-73
2021/08/06 10:58:56;;;;;;;1.90;1.63;;;21.00;99.90;;;;;;5029220;28;20445;-73
2021/08/06 11:01:32;;;;;;;2.43;1.80;;;21.00;99.90;;;;;;5022551;28;20502;-73
2021/08/06 11:03:59;;;;;;;3.30;1.87;;;21.00;99.90;;;;;;5025335;28;20473;-73
2021/08/06 11:06:35;;;;;;;2.77;1.80;;;21.00;99.90;;;;;;5024749;28;20558;-73
2021/08/06 11:09:27;;;;;;;2.80;1.70;;;21.10;99.90;;;;;;5023006;28;20423;-74
2021/08/06 11:11:58;;;;;;;2.00;1.80;;;21.20;99.90;;;;;;5004593;28;21047;-73
2021/08/06 11:14:39;;;;;;;3.07;1.53;;;21.60;99.90;;;;;;5024385;28;21578;-73
2021/08/06 11:17:15;;;;;;;7.80;1.87;;;21.90;99.90;;;;;;5008421;28;20477;-72
2021/08/06 11:19:50;;;;;;;1.87;1.67;;;22.30;99.90;;;;;;5021242;28;20534;-73
2021/08/06 11:22:16;;;;;;;4.67;1.63;;;22.40;99.90;;;;;;5023333;28;20477;-73
2021/08/06 11:24:43;;;;;;;2.40;1.87;;;22.40;99.90;;;;;;5023046;28;20447;-73
2021/08/06 11:27:10;;;;;;;1.70;1.60;;;22.50;99.90;;;;;;5024215;28;20858;-74
2021/08/06 11:29:37;;;;;;;2.17;1.73;;;22.60;99.90;;;;;;5023571;28;20470;-72
2021/08/06 11:32:11;;;;;;;2.13;1.90;;;22.40;99.90;;;;;;5026296;28;20435;-74
2021/08/06 11:35:01;;;;;;;2.60;1.63;;;22.40;99.90;;;;;;5024103;28;20468;-74
2021/08/06 11:37:51;;;;;;;3.20;1.53;;;22.30;99.90;;;;;;5024359;28;20443;-74
2021/08/06 11:40:19;;;;;;;4.23;1.77;;;22.40;99.90;;;;;;5025705;28;20518;-74
2021/08/06 11:42:45;;;;;;;4.17;1.70;;;22.40;99.90;;;;;;5024813;28;20453;-73
2021/08/06 11:45:14;;;;;;;1.90;1.70;;;22.40;99.90;;;;;;5019952;28;20443;-73
2021/08/06 11:47:43;;;;;;;2.37;1.80;;;22.50;99.90;;;;;;5024430;28;20427;-73
2021/08/06 11:50:14;;;;;;;1.70;1.60;;;22.60;99.90;;;;;;5020662;28;20420;-73
2021/08/06 11:52:46;;;;;;;2.97;1.70;;;22.60;99.90;;;;;;5025681;28;20428;-74
2021/08/06 11:55:18;;;;;;;3.00;1.60;;;22.90;99.90;;;;;;5023053;28;20485;-73
2021/08/06 11:57:46;;;;;;;4.00;1.60;;;23.30;99.90;;;;;;5022668;28;20997;-73
2021/08/06 12:00:19;;;;;;;2.13;1.70;;;23.30;99.90;;;;;;5019686;28;20450;-73
2021/08/06 12:02:45;;;;;;;2.20;1.60;;;23.10;99.90;;;;;;5023190;28;20481;-73
2021/08/06 12:05:23;;;;;;;3.70;1.87;;;23.30;99.90;;;;;;5022903;28;20419;-72
2021/08/06 12:07:50;;;;;;;2.37;1.70;;;23.30;99.90;;;;;;5022264;28;20188;-72
2021/08/06 12:10:16;;;;;;;2.30;1.97;;;23.20;99.90;;;;;;5023863;28;20842;-74
2021/08/06 12:12:41;;;;;;;2.43;1.90;;;23.00;99.90;;;;;;5021993;28;20565;-73
2021/08/06 12:15:55;;;;;;;1.93;1.73;;;22.80;99.90;;;;;;5023971;28;20223;-73
2021/08/06 12:18:20;;;;;;;3.63;1.80;;;22.60;99.90;;;;;;5024081;28;20801;-73
2021/08/06 12:20:54;;;;;;;3.07;1.90;;;22.50;99.90;;;;;;5024455;28;20486;-74
2021/08/06 12:23:21;;;;;;;3.20;1.70;;;22.60;99.90;;;;;;5025565;28;20223;-74
2021/08/06 12:26:09;;;;;;;2.20;2.00;;;23.10;99.90;;;;;;5025631;28;20451;-73
2021/08/06 12:28:37;;;;;;;2.13;1.73;;;23.50;99.90;;;;;;5023679;28;20502;-74
2021/08/06 12:31:13;;;;;;;2.03;1.70;;;23.50;99.90;;;;;;5025562;28;20432;-73
2021/08/06 12:33:41;;;;;;;2.07;1.70;;;23.50;99.90;;;;;;5019179;28;21831;-73
2021/08/06 12:36:15;;;;;;;3.07;1.53;;;23.40;99.90;;;;;;5023305;28;20462;-73
2021/08/06 12:38:41;;;;;;;2.10;1.60;;;24.00;99.90;;;;;;5027446;28;20440;-73
2021/08/06 12:41:08;;;;;;;2.40;1.70;;;25.30;99.90;;;;;;5028625;28;20528;-74
2021/08/06 12:43:34;;;;;;;2.33;1.87;;;26.90;99.90;;;;;;5027460;28;20447;-74
2021/08/06 12:46:14;;;;;;;3.97;2.43;;;26.40;99.90;;;;;;5028195;28;20513;-75
2021/08/06 12:49:12;;;;;;;2.23;2.03;;;26.40;99.90;;;;;;5025936;28;20212;-72
2021/08/06 12:51:39;;;;;;;2.10;1.90;;;27.10;99.90;;;;;;5002065;28;20459;-73
2021/08/06 12:54:25;;;;;;;2.80;1.60;;;28.00;99.90;;;;;;5027217;28;20430;-73
2021/08/06 12:56:53;;;;;;;4.60;2.07;;;28.70;99.90;;;;;;5009803;28;20443;-72
2021/08/06 12:59:21;;;;;;;3.57;1.80;;;27.50;99.90;;;;;;5024636;28;20983;-73